sensor_id;sensor_type;location;lat;lon;timestamp;pressure;altitude;pressure_sealevel;temperature;humidity
49311;BME280;35177;45.900;5.946;2023-06-10T00:01:39;97290.91;;;17.40;90.88
49311;BME280;35177;45.900;5.946;2023-06-10T00:04:06;97293.44;;;17.41;91.10
49311;BME280;35177;45.900;5.946;2023-06-10T00:06:31;97289.22;;;17.38;91.06
49311;BME280;35177;45.900;5.946;2023-06-10T00:09:06;97290.81;;;17.31;91.52
49311;BME280;35177;45.900;5.946;2023-06-10T00:11:35;97289.38;;;17.37;90.77
49311;BME280;35177;45.900;5.946;2023-06-10T00:14:01;97294.84;;;17.35;90.67
49311;BME280;35177;45.900;5.946;2023-06-10T00:16:27;97289.97;;;17.31;91.48
49311;BME280;35177;45.900;5.946;2023-06-10T00:18:53;97293.47;;;17.31;91.19
49311;BME280;35177;45.900;5.946;2023-06-10T00:21:21;97294.34;;;17.32;90.02
49311;BME280;35177;45.900;5.946;2023-06-10T00:23:47;97291.31;;;17.45;89.77
49311;BME280;35177;45.900;5.946;2023-06-10T00:26:12;97305.88;;;17.32;89.87
49311;BME280;35177;45.900;5.946;2023-06-10T00:28:38;97305.09;;;17.22;90.78
49311;BME280;35177;45.900;5.946;2023-06-10T00:31:03;97297.06;;;17.22;90.04
49311;BME280;35177;45.900;5.946;2023-06-10T00:33:30;97292.63;;;17.31;89.80
49311;BME280;35177;45.900;5.946;2023-06-10T00:35:56;97293.53;;;17.22;90.47
49311;BME280;35177;45.900;5.946;2023-06-10T00:38:21;97283.44;;;17.16;91.24
49311;BME280;35177;45.900;5.946;2023-06-10T00:40:47;97292.69;;;17.21;90.40
49311;BME280;35177;45.900;5.946;2023-06-10T00:43:12;97280.84;;;17.24;90.81
49311;BME280;35177;45.900;5.946;2023-06-10T00:45:38;97286.28;;;17.14;91.07
49311;BME280;35177;45.900;5.946;2023-06-10T00:48:03;97296.88;;;17.06;91.98
49311;BME280;35177;45.900;5.946;2023-06-10T00:50:29;97290.84;;;17.04;91.62
49311;BME280;35177;45.900;5.946;2023-06-10T00:52:56;97288.56;;;17.09;91.86
49311;BME280;35177;45.900;5.946;2023-06-10T00:55:22;97280.31;;;17.20;91.26
49311;BME280;35177;45.900;5.946;2023-06-10T00:57:49;97285.06;;;17.26;91.18
49311;BME280;35177;45.900;5.946;2023-06-10T01:00:15;97282.31;;;17.18;91.85
49311;BME280;35177;45.900;5.946;2023-06-10T01:02:41;97287.66;;;17.18;91.61
49311;BME280;35177;45.900;5.946;2023-06-10T01:05:10;97288.50;;;17.19;91.50
49311;BME280;35177;45.900;5.946;2023-06-10T01:10:57;97285.00;;;17.18;91.43
49311;BME280;35177;45.900;5.946;2023-06-10T01:13:25;97275.81;;;17.21;90.79
49311;BME280;35177;45.900;5.946;2023-06-10T01:15:57;97277.88;;;17.27;90.77
49311;BME280;35177;45.900;5.946;2023-06-10T01:18:23;97276.66;;;17.21;91.32
49311;BME280;35177;45.900;5.946;2023-06-10T01:20:49;97273.34;;;17.10;92.19
49311;BME280;35177;45.900;5.946;2023-06-10T01:23:15;97278.44;;;17.03;92.08
49311;BME280;35177;45.900;5.946;2023-06-10T01:26:02;97269.34;;;16.96;92.18
49311;BME280;35177;45.900;5.946;2023-06-10T01:28:38;97265.94;;;16.77;93.04
49311;BME280;35177;45.900;5.946;2023-06-10T01:31:16;97271.75;;;16.90;92.81
49311;BME280;35177;45.900;5.946;2023-06-10T01:33:47;97272.91;;;16.87;92.89
49311;BME280;35177;45.900;5.946;2023-06-10T01:36:15;97268.56;;;16.86;93.04
49311;BME280;35177;45.900;5.946;2023-06-10T01:38:44;97274.16;;;16.93;92.55
49311;BME280;35177;45.900;5.946;2023-06-10T01:41:14;97271.31;;;16.94;93.05
49311;BME280;35177;45.900;5.946;2023-06-10T01:43:43;97269.38;;;16.87;93.23
49311;BME280;35177;45.900;5.946;2023-06-10T01:46:09;97269.81;;;16.82;93.52
49311;BME280;35177;45.900;5.946;2023-06-10T01:48:34;97270.88;;;16.72;93.01
49311;BME280;35177;45.900;5.946;2023-06-10T01:51:00;97279.53;;;16.83;92.82
49311;BME280;35177;45.900;5.946;2023-06-10T01:53:26;97275.72;;;16.86;92.87
49311;BME280;35177;45.900;5.946;2023-06-10T01:55:51;97278.81;;;16.91;93.15
49311;BME280;35177;45.900;5.946;2023-06-10T01:58:17;97278.59;;;17.02;92.36
49311;BME280;35177;45.900;5.946;2023-06-10T02:00:42;97280.72;;;16.98;92.34
49311;BME280;35177;45.900;5.946;2023-06-10T02:03:08;97284.16;;;16.91;92.81
49311;BME280;35177;45.900;5.946;2023-06-10T02:05:33;97277.66;;;16.93;92.75
49311;BME280;35177;45.900;5.946;2023-06-10T02:07:59;97277.34;;;16.96;92.71
49311;BME280;35177;45.900;5.946;2023-06-10T02:10:24;97282.63;;;16.88;92.99
49311;BME280;35177;45.900;5.946;2023-06-10T02:12:50;97281.59;;;16.89;93.14
49311;BME280;35177;45.900;5.946;2023-06-10T02:15:15;97282.28;;;16.91;93.18
49311;BME280;35177;45.900;5.946;2023-06-10T02:17:41;97283.03;;;16.93;93.06
49311;BME280;35177;45.900;5.946;2023-06-10T02:20:07;97285.78;;;17.01;92.68
49311;BME280;35177;45.900;5.946;2023-06-10T02:22:36;97285.50;;;17.04;92.20
49311;BME280;35177;45.900;5.946;2023-06-10T02:25:03;97278.75;;;17.00;92.22
49311;BME280;35177;45.900;5.946;2023-06-10T02:27:29;97285.50;;;17.04;91.75
49311;BME280;35177;45.900;5.946;2023-06-10T02:29:56;97283.09;;;17.01;91.92
49311;BME280;35177;45.900;5.946;2023-06-10T02:32:21;97287.16;;;17.05;91.93
49311;BME280;35177;45.900;5.946;2023-06-10T02:34:46;97281.13;;;17.03;91.82
49311;BME280;35177;45.900;5.946;2023-06-10T02:37:14;97277.19;;;17.07;91.02
49311;BME280;35177;45.900;5.946;2023-06-10T02:39:40;97283.78;;;17.03;91.24
49311;BME280;35177;45.900;5.946;2023-06-10T02:42:05;97280.78;;;16.89;91.86
49311;BME280;35177;45.900;5.946;2023-06-10T02:44:31;97281.16;;;16.66;92.86
49311;BME280;35177;45.900;5.946;2023-06-10T02:46:57;97277.63;;;16.66;93.07
49311;BME280;35177;45.900;5.946;2023-06-10T02:49:22;97279.94;;;16.61;94.03
49311;BME280;35177;45.900;5.946;2023-06-10T02:51:49;97281.19;;;16.57;94.22
49311;BME280;35177;45.900;5.946;2023-06-10T02:54:18;97288.91;;;16.60;93.62
49311;BME280;35177;45.900;5.946;2023-06-10T02:56:43;97291.84;;;16.66;93.94
49311;BME280;35177;45.900;5.946;2023-06-10T02:59:09;97292.28;;;16.62;94.29
49311;BME280;35177;45.900;5.946;2023-06-10T03:01:34;97288.22;;;16.48;94.82
49311;BME280;35177;45.900;5.946;2023-06-10T03:04:03;97285.81;;;16.45;95.08
49311;BME280;35177;45.900;5.946;2023-06-10T03:06:29;97298.34;;;16.45;95.56
49311;BME280;35177;45.900;5.946;2023-06-10T03:08:54;97288.34;;;16.56;95.09
49311;BME280;35177;45.900;5.946;2023-06-10T03:11:20;97280.88;;;16.70;94.60
49311;BME280;35177;45.900;5.946;2023-06-10T03:13:45;97282.84;;;16.67;94.64
49311;BME280;35177;45.900;5.946;2023-06-10T03:16:11;97290.09;;;16.75;94.35
49311;BME280;35177;45.900;5.946;2023-06-10T03:18:37;97283.91;;;16.84;93.59
49311;BME280;35177;45.900;5.946;2023-06-10T03:21:03;97293.78;;;16.74;94.41
49311;BME280;35177;45.900;5.946;2023-06-10T03:23:29;97290.25;;;16.74;94.73
49311;BME280;35177;45.900;5.946;2023-06-10T03:25:54;97288.97;;;16.78;94.40
49311;BME280;35177;45.900;5.946;2023-06-10T03:28:20;97293.44;;;16.87;94.07
49311;BME280;35177;45.900;5.946;2023-06-10T03:30:47;97292.88;;;16.93;93.56
49311;BME280;35177;45.900;5.946;2023-06-10T03:33:12;97283.72;;;16.95;93.77
49311;BME280;35177;45.900;5.946;2023-06-10T03:35:39;97291.31;;;16.90;93.67
49311;BME280;35177;45.900;5.946;2023-06-10T03:38:05;97295.56;;;16.83;93.90
49311;BME280;35177;45.900;5.946;2023-06-10T03:40:31;97295.13;;;16.88;94.26
49311;BME280;35177;45.900;5.946;2023-06-10T03:42:57;97291.75;;;16.86;94.13
49311;BME280;35177;45.900;5.946;2023-06-10T03:45:23;97289.81;;;16.78;94.35
49311;BME280;35177;45.900;5.946;2023-06-10T03:47:49;97295.41;;;16.85;94.08
49311;BME280;35177;45.900;5.946;2023-06-10T03:50:15;97293.72;;;16.93;93.59
49311;BME280;35177;45.900;5.946;2023-06-10T03:52:41;97301.84;;;16.92;93.84
49311;BME280;35177;45.900;5.946;2023-06-10T03:55:07;97295.09;;;16.97;93.30
49311;BME280;35177;45.900;5.946;2023-06-10T03:57:32;97297.72;;;17.07;92.92
49311;BME280;35177;45.900;5.946;2023-06-10T03:59:58;97297.72;;;17.07;93.05
49311;BME280;35177;45.900;5.946;2023-06-10T04:02:24;97300.41;;;17.07;92.63
49311;BME280;35177;45.900;5.946;2023-06-10T04:04:50;97298.84;;;17.04;92.42
49311;BME280;35177;45.900;5.946;2023-06-10T04:07:16;97308.41;;;17.07;92.50
49311;BME280;35177;45.900;5.946;2023-06-10T04:09:44;97302.09;;;16.98;92.89
49311;BME280;35177;45.900;5.946;2023-06-10T04:12:09;97303.50;;;17.02;92.93
49311;BME280;35177;45.900;5.946;2023-06-10T04:14:36;97299.53;;;17.06;92.22
49311;BME280;35177;45.900;5.946;2023-06-10T04:17:04;97308.25;;;17.08;91.96
49311;BME280;35177;45.900;5.946;2023-06-10T04:19:32;97310.84;;;17.00;93.03
49311;BME280;35177;45.900;5.946;2023-06-10T04:21:57;97311.41;;;16.94;93.90
49311;BME280;35177;45.900;5.946;2023-06-10T04:24:23;97308.28;;;16.72;94.62
49311;BME280;35177;45.900;5.946;2023-06-10T04:26:48;97311.41;;;16.57;95.47
49311;BME280;35177;45.900;5.946;2023-06-10T04:29:14;97312.94;;;16.70;95.00
49311;BME280;35177;45.900;5.946;2023-06-10T04:31:39;97320.31;;;16.85;94.27
49311;BME280;35177;45.900;5.946;2023-06-10T04:34:05;97314.38;;;16.91;94.09
49311;BME280;35177;45.900;5.946;2023-06-10T04:36:30;97314.38;;;16.91;94.10
49311;BME280;35177;45.900;5.946;2023-06-10T04:38:56;97312.31;;;16.85;94.88
49311;BME280;35177;45.900;5.946;2023-06-10T04:41:21;97313.69;;;16.89;94.72
49311;BME280;35177;45.900;5.946;2023-06-10T04:43:47;97318.47;;;16.95;94.06
49311;BME280;35177;45.900;5.946;2023-06-10T04:46:13;97315.63;;;16.97;93.71
49311;BME280;35177;45.900;5.946;2023-06-10T04:48:38;97318.53;;;17.03;93.18
49311;BME280;35177;45.900;5.946;2023-06-10T04:51:04;97317.56;;;17.04;93.52
49311;BME280;35177;45.900;5.946;2023-06-10T04:53:30;97313.44;;;17.10;92.98
49311;BME280;35177;45.900;5.946;2023-06-10T04:55:57;97318.09;;;17.08;93.07
49311;BME280;35177;45.900;5.946;2023-06-10T04:58:23;97318.38;;;17.14;92.95
49311;BME280;35177;45.900;5.946;2023-06-10T05:00:48;97316.69;;;17.13;93.13
49311;BME280;35177;45.900;5.946;2023-06-10T05:03:14;97311.31;;;17.13;93.21
49311;BME280;35177;45.900;5.946;2023-06-10T05:05:41;97314.97;;;17.12;93.51
49311;BME280;35177;45.900;5.946;2023-06-10T05:08:07;97312.78;;;16.98;94.07
49311;BME280;35177;45.900;5.946;2023-06-10T05:10:32;97313.06;;;17.05;93.89
49311;BME280;35177;45.900;5.946;2023-06-10T05:12:59;97309.09;;;17.09;94.18
49311;BME280;35177;45.900;5.946;2023-06-10T05:15:25;97310.78;;;17.10;93.99
49311;BME280;35177;45.900;5.946;2023-06-10T05:17:50;97311.94;;;17.07;93.95
49311;BME280;35177;45.900;5.946;2023-06-10T05:20:17;97314.41;;;17.18;93.32
49311;BME280;35177;45.900;5.946;2023-06-10T05:22:43;97312.56;;;17.19;93.87
49311;BME280;35177;45.900;5.946;2023-06-10T05:25:09;97309.91;;;17.19;93.03
49311;BME280;35177;45.900;5.946;2023-06-10T05:27:35;97310.59;;;17.21;93.76
49311;BME280;35177;45.900;5.946;2023-06-10T05:30:02;97311.53;;;17.29;92.66
49311;BME280;35177;45.900;5.946;2023-06-10T05:32:28;97311.00;;;17.26;93.24
49311;BME280;35177;45.900;5.946;2023-06-10T05:34:54;97313.66;;;17.26;94.08
49311;BME280;35177;45.900;5.946;2023-06-10T05:37:19;97314.59;;;17.34;93.18
49311;BME280;35177;45.900;5.946;2023-06-10T05:39:45;97320.22;;;17.31;92.86
49311;BME280;35177;45.900;5.946;2023-06-10T05:42:10;97307.72;;;17.32;92.94
49311;BME280;35177;45.900;5.946;2023-06-10T05:44:36;97315.34;;;17.27;92.68
49311;BME280;35177;45.900;5.946;2023-06-10T05:47:02;97315.56;;;17.33;92.58
49311;BME280;35177;45.900;5.946;2023-06-10T05:49:28;97316.72;;;17.31;93.67
49311;BME280;35177;45.900;5.946;2023-06-10T05:51:54;97308.34;;;17.44;92.84
49311;BME280;35177;45.900;5.946;2023-06-10T05:54:21;97314.53;;;17.44;92.69
49311;BME280;35177;45.900;5.946;2023-06-10T05:56:46;97318.44;;;17.50;92.39
49311;BME280;35177;45.900;5.946;2023-06-10T05:59:12;97319.56;;;17.47;92.74
49311;BME280;35177;45.900;5.946;2023-06-10T06:01:38;97320.53;;;17.56;91.52
49311;BME280;35177;45.900;5.946;2023-06-10T06:04:03;97316.19;;;17.55;91.43
49311;BME280;35177;45.900;5.946;2023-06-10T06:06:29;97316.84;;;17.57;92.23
49311;BME280;35177;45.900;5.946;2023-06-10T06:08:54;97315.31;;;17.54;91.99
49311;BME280;35177;45.900;5.946;2023-06-10T06:11:20;97322.91;;;17.59;91.61
49311;BME280;35177;45.900;5.946;2023-06-10T06:13:45;97319.47;;;17.66;91.81
49311;BME280;35177;45.900;5.946;2023-06-10T06:16:14;97321.00;;;17.69;91.78
49311;BME280;35177;45.900;5.946;2023-06-10T06:18:40;97323.09;;;17.75;91.20
49311;BME280;35177;45.900;5.946;2023-06-10T06:21:06;97325.22;;;17.89;90.86
49311;BME280;35177;45.900;5.946;2023-06-10T06:23:31;97323.91;;;18.11;90.22
49311;BME280;35177;45.900;5.946;2023-06-10T06:25:57;97332.03;;;18.19;89.32
49311;BME280;35177;45.900;5.946;2023-06-10T06:28:22;97330.56;;;18.24;88.77
49311;BME280;35177;45.900;5.946;2023-06-10T06:30:52;97334.25;;;18.23;89.58
49311;BME280;35177;45.900;5.946;2023-06-10T06:33:18;97337.06;;;18.22;90.17
49311;BME280;35177;45.900;5.946;2023-06-10T06:35:43;97334.28;;;18.31;88.83
49311;BME280;35177;45.900;5.946;2023-06-10T06:38:09;97338.81;;;18.48;87.86
49311;BME280;35177;45.900;5.946;2023-06-10T06:40:35;97337.72;;;18.59;87.67
49311;BME280;35177;45.900;5.946;2023-06-10T06:43:00;97339.34;;;18.78;87.34
49311;BME280;35177;45.900;5.946;2023-06-10T06:45:26;97340.19;;;18.78;86.39
49311;BME280;35177;45.900;5.946;2023-06-10T06:47:51;97341.16;;;18.77;86.80
49311;BME280;35177;45.900;5.946;2023-06-10T06:50:17;97338.19;;;18.80;85.45
49311;BME280;35177;45.900;5.946;2023-06-10T06:52:42;97343.06;;;18.85;84.95
49311;BME280;35177;45.900;5.946;2023-06-10T06:55:08;97336.66;;;18.78;85.66
49311;BME280;35177;45.900;5.946;2023-06-10T06:57:34;97330.72;;;18.92;85.45
49311;BME280;35177;45.900;5.946;2023-06-10T06:59:59;97334.72;;;18.88;85.33
49311;BME280;35177;45.900;5.946;2023-06-10T07:02:25;97332.22;;;18.94;85.76
49311;BME280;35177;45.900;5.946;2023-06-10T07:04:51;97333.94;;;18.95;85.95
49311;BME280;35177;45.900;5.946;2023-06-10T07:07:16;97336.72;;;18.86;88.30
49311;BME280;35177;45.900;5.946;2023-06-10T07:09:42;97336.81;;;19.02;86.29
49311;BME280;35177;45.900;5.946;2023-06-10T07:12:08;97333.22;;;19.27;87.23
49311;BME280;35177;45.900;5.946;2023-06-10T07:14:34;97338.88;;;19.16;85.52
49311;BME280;35177;45.900;5.946;2023-06-10T07:16:59;97339.03;;;19.14;84.23
49311;BME280;35177;45.900;5.946;2023-06-10T07:19:25;97342.44;;;19.24;84.69
49311;BME280;35177;45.900;5.946;2023-06-10T07:21:51;97341.72;;;19.48;82.64
49311;BME280;35177;45.900;5.946;2023-06-10T07:24:16;97341.72;;;19.48;81.86
49311;BME280;35177;45.900;5.946;2023-06-10T07:26:42;97345.09;;;19.50;81.01
49311;BME280;35177;45.900;5.946;2023-06-10T07:29:07;97343.75;;;19.46;83.03
49311;BME280;35177;45.900;5.946;2023-06-10T07:31:33;97348.63;;;19.51;81.62
49311;BME280;35177;45.900;5.946;2023-06-10T07:33:58;97338.03;;;19.49;83.23
49311;BME280;35177;45.900;5.946;2023-06-10T07:36:24;97340.13;;;19.71;83.56
49311;BME280;35177;45.900;5.946;2023-06-10T07:38:52;97344.81;;;19.69;84.02
49311;BME280;35177;45.900;5.946;2023-06-10T07:41:18;97343.47;;;19.73;82.59
49311;BME280;35177;45.900;5.946;2023-06-10T07:43:45;97348.50;;;19.60;82.47
49311;BME280;35177;45.900;5.946;2023-06-10T07:46:10;97347.47;;;19.61;82.38
49311;BME280;35177;45.900;5.946;2023-06-10T07:48:36;97350.19;;;19.77;82.95
49311;BME280;35177;45.900;5.946;2023-06-10T07:51:01;97359.41;;;19.67;81.45
49311;BME280;35177;45.900;5.946;2023-06-10T07:53:27;97351.41;;;19.83;83.57
49311;BME280;35177;45.900;5.946;2023-06-10T07:55:53;97352.59;;;19.88;83.43
49311;BME280;35177;45.900;5.946;2023-06-10T07:58:18;97342.50;;;19.82;77.67
49311;BME280;35177;45.900;5.946;2023-06-10T08:00:44;97352.56;;;19.72;78.46
49311;BME280;35177;45.900;5.946;2023-06-10T08:03:10;97352.88;;;19.69;79.63
49311;BME280;35177;45.900;5.946;2023-06-10T08:05:35;97344.84;;;19.93;80.12
49311;BME280;35177;45.900;5.946;2023-06-10T08:08:01;97340.00;;;19.97;79.17
49311;BME280;35177;45.900;5.946;2023-06-10T08:10:26;97347.75;;;20.08;80.79
49311;BME280;35177;45.900;5.946;2023-06-10T08:12:52;97347.56;;;20.09;78.24
49311;BME280;35177;45.900;5.946;2023-06-10T08:15:18;97343.88;;;20.02;81.75
49311;BME280;35177;45.900;5.946;2023-06-10T08:17:43;97342.53;;;19.98;80.42
49311;BME280;35177;45.900;5.946;2023-06-10T08:20:09;97345.88;;;20.00;79.35
49311;BME280;35177;45.900;5.946;2023-06-10T08:22:35;97341.84;;;19.88;77.65
49311;BME280;35177;45.900;5.946;2023-06-10T08:25:01;97341.84;;;19.88;78.47
49311;BME280;35177;45.900;5.946;2023-06-10T08:27:26;97343.88;;;19.94;77.96
49311;BME280;35177;45.900;5.946;2023-06-10T08:29:52;97346.41;;;20.04;74.36
49311;BME280;35177;45.900;5.946;2023-06-10T08:32:18;97342.69;;;19.97;74.21
49311;BME280;35177;45.900;5.946;2023-06-10T08:34:43;97337.16;;;20.15;74.63
49311;BME280;35177;45.900;5.946;2023-06-10T08:37:08;97336.53;;;20.29;74.67
49311;BME280;35177;45.900;5.946;2023-06-10T08:39:34;97333.50;;;20.24;75.84
49311;BME280;35177;45.900;5.946;2023-06-10T08:44:40;97337.19;;;20.47;74.42
49311;BME280;35177;45.900;5.946;2023-06-10T08:49:38;97340.56;;;20.65;74.56
49311;BME280;35177;45.900;5.946;2023-06-10T08:52:07;97341.19;;;20.75;73.32
49311;BME280;35177;45.900;5.946;2023-06-10T08:54:34;97333.44;;;20.96;73.70
49311;BME280;35177;45.900;5.946;2023-06-10T08:57:05;97332.56;;;20.96;73.90
49311;BME280;35177;45.900;5.946;2023-06-10T08:59:31;97335.09;;;21.05;72.65
49311;BME280;35177;45.900;5.946;2023-06-10T09:01:57;97338.28;;;21.17;72.50
49311;BME280;35177;45.900;5.946;2023-06-10T09:04:24;97334.59;;;21.10;73.55
49311;BME280;35177;45.900;5.946;2023-06-10T09:06:49;97338.13;;;21.18;72.65
49311;BME280;35177;45.900;5.946;2023-06-10T09:09:16;97335.56;;;21.17;74.26
49311;BME280;35177;45.900;5.946;2023-06-10T09:11:43;97336.44;;;21.17;71.94
49311;BME280;35177;45.900;5.946;2023-06-10T09:14:08;97329.16;;;21.26;69.71
49311;BME280;35177;45.900;5.946;2023-06-10T09:16:34;97334.84;;;21.39;71.77
49311;BME280;35177;45.900;5.946;2023-06-10T09:19:00;97337.00;;;21.43;73.18
49311;BME280;35177;45.900;5.946;2023-06-10T09:21:25;97337.00;;;21.43;72.32
49311;BME280;35177;45.900;5.946;2023-06-10T09:23:51;97336.88;;;21.37;73.66
49311;BME280;35177;45.900;5.946;2023-06-10T09:26:18;97338.13;;;21.10;71.44
49311;BME280;35177;45.900;5.946;2023-06-10T09:28:49;97334.13;;;20.90;71.04
49311;BME280;35177;45.900;5.946;2023-06-10T09:31:17;97337.09;;;21.03;71.11
49311;BME280;35177;45.900;5.946;2023-06-10T09:33:47;97332.94;;;21.09;70.99
49311;BME280;35177;45.900;5.946;2023-06-10T09:36:21;97334.47;;;21.42;70.86
49311;BME280;35177;45.900;5.946;2023-06-10T09:38:49;97329.63;;;21.68;67.61
49311;BME280;35177;45.900;5.946;2023-06-10T09:41:16;97329.34;;;21.94;67.24
49311;BME280;35177;45.900;5.946;2023-06-10T09:43:43;97334.59;;;22.55;65.10
49311;BME280;35177;45.900;5.946;2023-06-10T09:46:19;97331.69;;;22.65;65.93
49311;BME280;35177;45.900;5.946;2023-06-10T09:48:47;97330.34;;;23.13;65.65
49311;BME280;35177;45.900;5.946;2023-06-10T09:51:13;97322.94;;;22.77;66.47
49311;BME280;35177;45.900;5.946;2023-06-10T09:53:39;97317.50;;;22.86;66.44
49311;BME280;35177;45.900;5.946;2023-06-10T09:56:05;97322.25;;;23.13;64.25
49311;BME280;35177;45.900;5.946;2023-06-10T09:58:35;97321.94;;;23.66;63.84
49311;BME280;35177;45.900;5.946;2023-06-10T10:01:04;97321.84;;;23.74;63.40
49311;BME280;35177;45.900;5.946;2023-06-10T10:03:30;97314.97;;;23.72;62.33
49311;BME280;35177;45.900;5.946;2023-06-10T10:05:59;97319.34;;;23.58;61.37
49311;BME280;35177;45.900;5.946;2023-06-10T10:08:25;97325.47;;;22.94;61.72
49311;BME280;35177;45.900;5.946;2023-06-10T10:10:51;97313.94;;;22.85;62.97
49311;BME280;35177;45.900;5.946;2023-06-10T10:13:17;97313.31;;;22.23;65.68
49311;BME280;35177;45.900;5.946;2023-06-10T10:15:44;97308.91;;;22.45;65.00
49311;BME280;35177;45.900;5.946;2023-06-10T10:18:14;97309.69;;;22.91;63.35
49311;BME280;35177;45.900;5.946;2023-06-10T10:20:50;97307.06;;;22.83;64.14
49311;BME280;35177;45.900;5.946;2023-06-10T10:23:34;97315.34;;;22.81;62.51
49311;BME280;35177;45.900;5.946;2023-06-10T10:26:00;97317.53;;;22.40;64.32
49311;BME280;35177;45.900;5.946;2023-06-10T10:28:39;97309.56;;;22.99;64.91
49311;BME280;35177;45.900;5.946;2023-06-10T10:31:08;97311.66;;;23.11;63.93
49311;BME280;35177;45.900;5.946;2023-06-10T10:33:52;97309.00;;;23.97;59.28
49311;BME280;35177;45.900;5.946;2023-06-10T10:36:21;97305.09;;;25.53;56.37
49311;BME280;35177;45.900;5.946;2023-06-10T10:38:47;97297.59;;;26.15;54.64
49311;BME280;35177;45.900;5.946;2023-06-10T10:41:15;97295.75;;;25.69;54.22
49311;BME280;35177;45.900;5.946;2023-06-10T10:43:41;97298.00;;;25.59;51.92
49311;BME280;35177;45.900;5.946;2023-06-10T10:46:12;97294.03;;;26.35;50.43
49311;BME280;35177;45.900;5.946;2023-06-10T10:48:38;97291.09;;;26.23;50.66
49311;BME280;35177;45.900;5.946;2023-06-10T10:51:06;97295.31;;;26.45;49.80
49311;BME280;35177;45.900;5.946;2023-06-10T10:53:32;97293.88;;;26.88;50.79
49311;BME280;35177;45.900;5.946;2023-06-10T10:56:09;97297.41;;;26.96;49.44
49311;BME280;35177;45.900;5.946;2023-06-10T10:58:38;97293.63;;;26.38;49.26
49311;BME280;35177;45.900;5.946;2023-06-10T11:01:13;97290.72;;;26.52;52.20
49311;BME280;35177;45.900;5.946;2023-06-10T11:03:46;97291.56;;;24.91;51.84
49311;BME280;35177;45.900;5.946;2023-06-10T11:06:17;97292.31;;;26.07;48.00
49311;BME280;35177;45.900;5.946;2023-06-10T11:11:23;97292.72;;;26.04;49.85
49311;BME280;35177;45.900;5.946;2023-06-10T11:13:59;97293.09;;;25.41;52.83
49311;BME280;35177;45.900;5.946;2023-06-10T11:16:38;97288.00;;;26.72;51.01
49311;BME280;35177;45.900;5.946;2023-06-10T11:19:04;97286.97;;;27.06;48.70
49311;BME280;35177;45.900;5.946;2023-06-10T11:21:30;97279.78;;;27.31;48.82
49311;BME280;35177;45.900;5.946;2023-06-10T11:23:57;97281.03;;;27.48;47.95
49311;BME280;35177;45.900;5.946;2023-06-10T11:31:29;97281.09;;;26.69;47.15
49311;BME280;35177;45.900;5.946;2023-06-10T11:33:57;97270.56;;;27.89;46.11
49311;BME280;35177;45.900;5.946;2023-06-10T11:36:24;97276.81;;;27.52;46.08
49311;BME280;35177;45.900;5.946;2023-06-10T11:38:59;97267.75;;;28.09;45.04
49311;BME280;35177;45.900;5.946;2023-06-10T11:41:25;97280.25;;;27.15;48.81
49311;BME280;35177;45.900;5.946;2023-06-10T11:43:52;97263.97;;;26.10;48.01
49311;BME280;35177;45.900;5.946;2023-06-10T11:46:18;97265.06;;;26.74;46.90
49311;BME280;35177;45.900;5.946;2023-06-10T11:48:58;97264.31;;;27.38;46.94
49311;BME280;35177;45.900;5.946;2023-06-10T11:51:28;97257.94;;;26.21;46.95
49311;BME280;35177;45.900;5.946;2023-06-10T11:53:55;97250.81;;;27.05;47.13
49311;BME280;35177;45.900;5.946;2023-06-10T11:56:27;97244.19;;;28.28;44.04
49311;BME280;35177;45.900;5.946;2023-06-10T11:58:54;97249.06;;;27.37;46.48
49311;BME280;35177;45.900;5.946;2023-06-10T12:01:21;97240.00;;;26.53;47.26
49311;BME280;35177;45.900;5.946;2023-06-10T12:03:47;97241.88;;;26.46;48.43
49311;BME280;35177;45.900;5.946;2023-06-10T12:06:13;97229.16;;;26.20;49.01
49311;BME280;35177;45.900;5.946;2023-06-10T12:08:42;97228.91;;;26.02;48.13
49311;BME280;35177;45.900;5.946;2023-06-10T12:11:08;97222.41;;;26.03;50.42
49311;BME280;35177;45.900;5.946;2023-06-10T12:13:34;97220.34;;;26.05;50.03
49311;BME280;35177;45.900;5.946;2023-06-10T12:16:07;97225.59;;;26.39;49.39
49311;BME280;35177;45.900;5.946;2023-06-10T12:18:33;97213.88;;;26.84;46.95
49311;BME280;35177;45.900;5.946;2023-06-10T12:20:59;97226.03;;;26.36;51.95
49311;BME280;35177;45.900;5.946;2023-06-10T12:23:24;97218.94;;;26.22;48.22
49311;BME280;35177;45.900;5.946;2023-06-10T12:25:53;97215.34;;;26.02;48.89
49311;BME280;35177;45.900;5.946;2023-06-10T12:28:23;97209.91;;;26.08;50.71
49311;BME280;35177;45.900;5.946;2023-06-10T12:30:49;97204.88;;;25.86;48.92
49311;BME280;35177;45.900;5.946;2023-06-10T12:33:21;97205.09;;;25.97;47.62
49311;BME280;35177;45.900;5.946;2023-06-10T12:35:50;97204.31;;;26.30;47.08
49311;BME280;35177;45.900;5.946;2023-06-10T12:38:25;97205.13;;;26.30;46.93
49311;BME280;35177;45.900;5.946;2023-06-10T12:40:54;97203.63;;;25.82;48.53
49311;BME280;35177;45.900;5.946;2023-06-10T12:43:23;97198.84;;;25.97;50.29
49311;BME280;35177;45.900;5.946;2023-06-10T12:45:49;97200.09;;;26.07;46.74
49311;BME280;35177;45.900;5.946;2023-06-10T12:48:19;97200.31;;;26.71;45.91
49311;BME280;35177;45.900;5.946;2023-06-10T12:50:49;97191.34;;;26.71;47.45
49311;BME280;35177;45.900;5.946;2023-06-10T12:53:15;97193.06;;;26.19;48.29
49311;BME280;35177;45.900;5.946;2023-06-10T12:55:41;97195.53;;;26.41;47.58
49311;BME280;35177;45.900;5.946;2023-06-10T12:58:07;97187.41;;;26.47;45.89
49311;BME280;35177;45.900;5.946;2023-06-10T13:00:32;97184.22;;;26.63;47.59
49311;BME280;35177;45.900;5.946;2023-06-10T13:03:00;97185.28;;;26.75;46.10
49311;BME280;35177;45.900;5.946;2023-06-10T13:05:28;97187.41;;;27.31;44.16
49311;BME280;35177;45.900;5.946;2023-06-10T13:07:54;97182.84;;;27.18;46.03
49311;BME280;35177;45.900;5.946;2023-06-10T13:10:20;97181.59;;;27.14;42.75
49311;BME280;35177;45.900;5.946;2023-06-10T13:12:46;97180.28;;;27.30;43.48
49311;BME280;35177;45.900;5.946;2023-06-10T13:15:12;97181.69;;;27.52;45.29